createdAt,value
2023-04-12T05:03:15.320Z,705.00
2023-04-12T05:04:16.349Z,705.00
2023-04-12T05:05:16.290Z,705.00
2023-04-12T05:06:15.364Z,705.00
2023-04-12T05:07:15.363Z,706.00
2023-04-12T05:08:16.400Z,708.00
2023-04-12T05:09:16.419Z,711.00
2023-04-12T05:10:15.430Z,711.00
2023-04-12T05:11:16.472Z,710.00
2023-04-12T05:12:16.481Z,710.00
2023-04-12T05:13:16.518Z,710.00
2023-04-12T05:14:16.603Z,709.00
2023-04-12T05:15:15.601Z,706.00
2023-04-12T05:16:16.697Z,708.00
2023-04-12T05:17:16.673Z,709.00
2023-04-12T05:18:16.681Z,709.00
2023-04-12T05:19:16.727Z,711.00
2023-04-12T05:20:16.707Z,714.00
2023-04-12T05:21:16.732Z,714.00
2023-04-12T05:22:15.749Z,715.00
2023-04-12T05:23:16.759Z,712.00
2023-04-12T05:24:16.779Z,711.00
2023-04-12T05:25:16.809Z,710.00
2023-04-12T05:26:16.851Z,708.00
2023-04-12T05:27:15.851Z,708.00
2023-04-12T05:28:16.881Z,708.00
2023-04-12T05:29:16.996Z,707.00
2023-04-12T05:30:15.955Z,710.00
2023-04-12T05:31:16.036Z,708.00
2023-04-12T05:32:17.023Z,704.00
2023-04-12T05:33:17.055Z,707.00
2023-04-12T05:34:17.133Z,706.00
2023-04-12T05:35:16.126Z,707.00
2023-04-12T05:36:17.129Z,707.00
2023-04-12T05:37:17.203Z,707.00
2023-04-12T05:38:16.188Z,707.00
2023-04-12T05:39:18.822Z,706.00
2023-04-12T05:40:17.209Z,706.00
2023-04-12T05:41:16.222Z,704.00
2023-04-12T05:42:17.190Z,704.00
2023-04-12T05:43:17.188Z,700.00
2023-04-12T05:44:16.161Z,698.00
2023-04-12T05:45:17.182Z,695.00
2023-04-12T05:46:16.190Z,695.00
2023-04-12T05:47:17.150Z,695.00
2023-04-12T05:48:17.148Z,696.00
2023-04-12T05:49:17.179Z,694.00
2023-04-12T05:50:16.128Z,694.00
2023-04-12T05:51:16.149Z,698.00
2023-04-12T05:52:16.404Z,702.00
2023-04-12T05:53:17.195Z,702.00
2023-04-12T05:54:17.899Z,701.00
2023-04-12T05:55:17.101Z,697.00
2023-04-12T05:56:17.094Z,695.00
2023-04-12T05:57:17.084Z,696.00
2023-04-12T05:58:16.086Z,695.00
2023-04-12T05:59:17.053Z,691.00
2023-04-12T06:00:17.065Z,688.00
2023-04-12T06:01:17.059Z,686.00
2023-04-12T06:02:17.672Z,687.00
2023-04-12T06:03:17.211Z,687.00
2023-04-12T06:04:17.210Z,687.00
2023-04-12T06:05:17.153Z,688.00
2023-04-12T06:06:17.002Z,689.00
2023-04-12T06:07:17.056Z,688.00
2023-04-12T06:08:16.995Z,688.00
2023-04-12T06:09:17.111Z,689.00
2023-04-12T06:10:15.989Z,689.00
2023-04-12T06:11:16.973Z,685.00
2023-04-12T06:12:16.091Z,686.00
2023-04-12T06:13:15.969Z,684.00
2023-04-12T06:14:15.970Z,684.00
2023-04-12T06:15:16.015Z,683.00
2023-04-12T06:16:16.076Z,685.00
2023-04-12T06:17:17.086Z,688.00
2023-04-12T06:18:17.169Z,687.00
2023-04-12T06:19:17.170Z,685.00
2023-04-12T06:20:16.136Z,685.00
2023-04-12T06:21:16.206Z,685.00
2023-04-12T06:22:17.275Z,685.00
2023-04-12T06:23:16.259Z,684.00
2023-04-12T06:24:17.237Z,686.00
2023-04-12T06:25:17.357Z,685.00
2023-04-12T06:26:18.604Z,684.00
2023-04-12T06:27:16.482Z,688.00
2023-04-12T06:28:17.470Z,689.00
2023-04-12T06:29:17.483Z,689.00
2023-04-12T06:30:16.532Z,686.00
2023-04-12T06:31:17.539Z,686.00
2023-04-12T06:32:16.572Z,683.00
2023-04-12T06:33:17.595Z,683.00
2023-04-12T06:34:16.582Z,682.00
2023-04-12T06:35:17.603Z,680.00
2023-04-12T06:36:16.642Z,678.00
2023-04-12T06:37:16.632Z,678.00
2023-04-12T06:38:16.649Z,679.00
2023-04-12T06:39:17.693Z,678.00
2023-04-12T06:40:17.732Z,677.00
2023-04-12T06:41:17.699Z,678.00
2023-04-12T06:42:16.731Z,676.00
2023-04-12T06:43:17.719Z,675.00
2023-04-12T06:44:17.749Z,671.00
2023-04-12T06:45:17.747Z,669.00
2023-04-12T06:46:17.791Z,671.00
2023-04-12T06:47:17.809Z,674.00
2023-04-12T06:48:16.816Z,674.00
2023-04-12T06:49:17.816Z,674.00
2023-04-12T06:50:16.817Z,678.00
2023-04-12T06:51:16.858Z,679.00
2023-04-12T06:52:17.937Z,681.00
2023-04-12T06:53:17.886Z,679.00
2023-04-12T06:54:17.922Z,678.00
2023-04-12T06:55:17.155Z,681.00
2023-04-12T06:56:18.684Z,683.00
2023-04-12T06:57:17.433Z,683.00
2023-04-12T06:58:17.976Z,683.00
2023-04-12T06:59:18.000Z,681.00
2023-04-12T07:00:17.005Z,680.00
2023-04-12T07:01:17.112Z,679.00
2023-04-12T07:02:17.111Z,678.00
2023-04-12T07:03:17.111Z,677.00
2023-04-12T07:04:18.155Z,675.00
2023-04-12T07:05:18.084Z,675.00
2023-04-12T07:06:25.104Z,671.00
2023-04-12T07:07:18.114Z,672.00
2023-04-12T07:08:17.111Z,672.00
2023-04-12T07:09:18.072Z,672.00
2023-04-12T07:10:18.061Z,673.00
2023-04-12T07:11:21.638Z,672.00
2023-04-12T07:12:17.046Z,672.00
2023-04-12T07:13:18.058Z,670.00
2023-04-12T07:14:17.075Z,671.00
2023-04-12T07:15:18.039Z,670.00
2023-04-12T07:16:18.378Z,675.00
2023-04-12T07:17:18.030Z,675.00
2023-04-12T07:18:18.010Z,676.00
2023-04-12T07:19:18.008Z,675.00
2023-04-12T07:20:16.983Z,673.00
2023-04-12T07:21:16.982Z,671.00
2023-04-12T07:22:17.998Z,671.00
2023-04-12T07:23:18.029Z,666.00
2023-04-12T07:24:16.987Z,666.00
2023-04-12T07:25:16.958Z,665.00
2023-04-12T07:26:17.961Z,667.00
2023-04-12T07:27:18.047Z,665.00
2023-04-12T07:28:17.958Z,665.00
2023-04-12T07:29:16.929Z,664.00
2023-04-12T07:30:17.933Z,665.00
2023-04-12T07:31:17.947Z,665.00
2023-04-12T07:32:18.035Z,668.00
2023-04-12T07:33:19.904Z,668.00
2023-04-12T07:34:18.084Z,669.00
2023-04-12T07:35:17.948Z,669.00
2023-04-12T07:36:17.957Z,668.00
2023-04-12T07:37:17.936Z,669.00
2023-04-12T07:38:17.146Z,669.00
2023-04-12T07:39:16.916Z,669.00
2023-04-12T07:40:17.915Z,671.00
2023-04-12T07:41:17.908Z,670.00
2023-04-12T07:42:16.967Z,670.00
2023-04-12T07:43:17.963Z,669.00
2023-04-12T07:44:17.895Z,668.00
2023-04-12T07:45:17.877Z,666.00
2023-04-12T07:46:17.897Z,666.00
2023-04-12T07:47:17.944Z,669.00
2023-04-12T07:48:16.878Z,669.00
2023-04-12T07:49:17.871Z,670.00
2023-04-12T07:50:17.854Z,664.00
2023-04-12T07:51:17.848Z,665.00
2023-04-12T07:52:17.845Z,666.00
2023-04-12T07:53:17.936Z,665.00
2023-04-12T07:54:17.856Z,705.00
2023-04-12T07:55:16.812Z,726.00
2023-04-12T07:56:17.831Z,772.00
2023-04-12T07:57:17.951Z,786.00
2023-04-12T07:58:17.824Z,789.00
2023-04-12T07:59:17.815Z,786.00
2023-04-12T08:00:18.181Z,791.00
2023-04-12T08:01:17.856Z,809.00
2023-04-12T08:02:17.889Z,817.00
2023-04-12T08:03:17.861Z,825.00
2023-04-12T08:04:17.988Z,825.00
2023-04-12T08:05:17.798Z,832.00
2023-04-12T08:06:16.769Z,841.00
2023-04-12T08:07:17.839Z,863.00
2023-04-12T08:08:16.726Z,872.00
2023-04-12T08:09:16.753Z,898.00
2023-04-12T08:10:16.732Z,908.00
2023-04-12T08:11:17.836Z,947.00
2023-04-12T08:12:17.723Z,947.00
2023-04-12T08:13:23.079Z,951.00
2023-04-12T08:14:17.758Z,968.00
2023-04-12T08:15:17.698Z,971.00
2023-04-12T08:16:17.716Z,1010.00
2023-04-12T08:17:17.669Z,1003.00
2023-04-12T08:18:17.935Z,1004.00
2023-04-12T08:19:16.708Z,1003.00
2023-04-12T08:20:17.653Z,1006.00
2023-04-12T08:21:16.636Z,1016.00
2023-04-12T08:22:17.650Z,1022.00
2023-04-12T08:23:17.693Z,1022.00
2023-04-12T08:24:17.647Z,1080.00
2023-04-12T08:25:16.611Z,1093.00
2023-04-12T08:26:17.673Z,1100.00
2023-04-12T08:27:17.665Z,1091.00
2023-04-12T08:28:16.587Z,1090.00
2023-04-12T08:29:17.593Z,1087.00
2023-04-12T08:30:17.692Z,1089.00
2023-04-12T08:31:17.786Z,1094.00
2023-04-12T08:32:17.643Z,1085.00
2023-04-12T08:33:17.557Z,1118.00
2023-04-12T08:34:16.556Z,1133.00
2023-04-12T08:35:26.993Z,1144.00
2023-04-12T08:36:16.633Z,1169.00
2023-04-12T08:37:17.558Z,1171.00
2023-04-12T08:38:17.536Z,1167.00
2023-04-12T08:39:16.518Z,1161.00
2023-04-12T08:40:17.553Z,1163.00
2023-04-12T08:41:16.520Z,1163.00
2023-04-12T08:42:17.633Z,1163.00
2023-04-12T08:43:17.037Z,1167.00
2023-04-12T08:44:17.528Z,1164.00
2023-04-12T08:45:17.502Z,1160.00
2023-04-12T08:46:17.678Z,1161.00
2023-04-12T08:47:16.496Z,1162.00
2023-04-12T08:48:17.522Z,1161.00
2023-04-12T08:49:17.481Z,1157.00
2023-04-12T08:50:16.548Z,1154.00
2023-04-12T08:51:16.589Z,1153.00
2023-04-12T08:52:17.587Z,1154.00
2023-04-12T08:53:17.474Z,1151.00
2023-04-12T08:54:16.488Z,1149.00
2023-04-12T08:55:17.452Z,1149.00
2023-04-12T08:56:17.454Z,1149.00
2023-04-12T08:57:17.423Z,1148.00
2023-04-12T08:58:17.520Z,1148.00
2023-04-12T08:59:17.401Z,1146.00
2023-04-12T09:00:17.459Z,1147.00
2023-04-12T09:01:17.391Z,1147.00
2023-04-12T09:02:17.541Z,1146.00
2023-04-12T09:03:16.826Z,1146.00
2023-04-12T09:04:16.508Z,1146.00
2023-04-12T09:05:17.438Z,1150.00
2023-04-12T09:06:17.458Z,1150.00
2023-04-12T09:07:16.501Z,1145.00
2023-04-12T09:08:17.560Z,1144.00
2023-04-12T09:09:17.640Z,1146.00
2023-04-12T09:10:16.703Z,1144.00
2023-04-12T09:11:17.788Z,1144.00
2023-04-12T09:12:16.824Z,1142.00
2023-04-12T09:13:17.890Z,1143.00
2023-04-12T09:14:17.905Z,1141.00
2023-04-12T09:15:16.972Z,1139.00
2023-04-12T09:16:18.070Z,1140.00
2023-04-12T09:17:18.151Z,1142.00
2023-04-12T09:18:18.247Z,1143.00
2023-04-12T09:19:18.294Z,1140.00
2023-04-12T09:20:17.412Z,1138.00
2023-04-12T09:21:18.328Z,1136.00
2023-04-12T09:22:18.364Z,1134.00
2023-04-12T09:23:18.438Z,1135.00
2023-04-12T09:24:18.486Z,1134.00
2023-04-12T09:25:17.556Z,1136.00
2023-04-12T09:26:17.631Z,1138.00
2023-04-12T09:27:18.590Z,1138.00
2023-04-12T09:28:17.680Z,1136.00
2023-04-12T09:29:17.681Z,1137.00
2023-04-12T09:30:17.803Z,1134.00
2023-04-12T09:31:18.853Z,1133.00
2023-04-12T09:32:18.844Z,1130.00
2023-04-12T09:33:18.868Z,1131.00
2023-04-12T09:34:18.913Z,1126.00
2023-04-12T09:35:18.086Z,1123.00
2023-04-12T09:36:18.964Z,1118.00
2023-04-12T09:37:17.998Z,1120.00
2023-04-12T09:38:19.019Z,1117.00
2023-04-12T09:39:18.058Z,1116.00
2023-04-12T09:40:18.102Z,1119.00
2023-04-12T09:41:22.320Z,1119.00
2023-04-12T09:42:33.188Z,1118.00
2023-04-12T09:43:19.119Z,1116.00
2023-04-12T09:44:18.098Z,1117.00
2023-04-12T09:45:19.063Z,1118.00
2023-04-12T09:46:19.089Z,1116.00
2023-04-12T09:47:19.030Z,1120.00
2023-04-12T09:48:19.523Z,1119.00
2023-04-12T09:49:19.067Z,1119.00
2023-04-12T09:50:18.137Z,1117.00
2023-04-12T09:51:19.060Z,1116.00
2023-04-12T09:52:19.041Z,1115.00
2023-04-12T09:53:18.041Z,1113.00
2023-04-12T09:54:17.991Z,1113.00
2023-04-12T09:55:19.222Z,1144.00
2023-04-12T09:56:18.983Z,1155.00
2023-04-12T09:57:18.987Z,1166.00
2023-04-12T09:58:17.991Z,1196.00
2023-04-12T09:59:18.981Z,1206.00
2023-04-12T10:00:19.031Z,1217.00
2023-04-12T10:01:17.972Z,1233.00
2023-04-12T10:02:19.122Z,1250.00
2023-04-12T10:03:19.138Z,1270.00
2023-04-12T10:04:19.085Z,1270.00
2023-04-12T10:05:18.176Z,1279.00
2023-04-12T10:06:18.916Z,1294.00
2023-04-12T10:07:18.935Z,1316.00
2023-04-12T10:08:18.891Z,1381.00
2023-04-12T10:09:17.887Z,1432.00
2023-04-12T10:10:18.144Z,1414.00
2023-04-12T10:11:18.891Z,1391.00
2023-04-12T10:12:17.870Z,1385.00
2023-04-12T10:13:18.870Z,1399.00
2023-04-12T10:14:17.949Z,1396.00
2023-04-12T10:15:18.419Z,1396.00
2023-04-12T10:16:17.883Z,1405.00
2023-04-12T10:17:18.826Z,1411.00
2023-04-12T10:18:19.014Z,1430.00
2023-04-12T10:19:18.863Z,1441.00
2023-04-12T10:20:18.104Z,1447.00
2023-04-12T10:21:18.971Z,1456.00
2023-04-12T10:22:28.007Z,1560.00
2023-04-12T10:23:17.972Z,1582.00
2023-04-12T10:24:18.971Z,1546.00
2023-04-12T10:25:18.950Z,1517.00
2023-04-12T10:26:17.919Z,1514.00
2023-04-12T10:27:18.951Z,1514.00
2023-04-12T10:28:17.925Z,1516.00
2023-04-12T10:29:18.912Z,1522.00
2023-04-12T10:30:18.900Z,1579.00
2023-04-12T10:31:18.937Z,1561.00
2023-04-12T10:32:18.951Z,1559.00
2023-04-12T10:33:19.006Z,1558.00
2023-04-12T10:34:17.905Z,1600.00
2023-04-12T10:35:17.945Z,1599.00
2023-04-12T10:36:18.012Z,1604.00
2023-04-12T10:37:18.863Z,1608.00
2023-04-12T10:38:18.896Z,1613.00
2023-04-12T10:39:18.854Z,1627.00
2023-04-12T10:40:18.847Z,1643.00
2023-04-12T10:41:17.853Z,1651.00
2023-04-12T10:42:18.832Z,1659.00
2023-04-12T10:43:18.097Z,1665.00
2023-04-12T10:44:17.856Z,1707.00
2023-04-12T10:45:18.862Z,1710.00
2023-04-12T10:46:18.878Z,1712.00
2023-04-12T10:47:18.000Z,1718.00
2023-04-12T10:48:19.044Z,1717.00
2023-04-12T10:49:19.470Z,1727.00
2023-04-12T10:50:17.792Z,1753.00
2023-04-12T10:51:20.478Z,1782.00
2023-04-12T10:52:18.785Z,1778.00
2023-04-12T10:53:17.760Z,1783.00
2023-04-12T10:54:18.837Z,1811.00
2023-04-12T10:55:18.902Z,1819.00
2023-04-12T10:56:18.788Z,1822.00
2023-04-12T10:57:18.744Z,1830.00
2023-04-12T10:58:17.745Z,1833.00
2023-04-12T10:59:18.759Z,1835.00
2023-04-12T11:00:18.828Z,1843.00
2023-04-12T11:01:17.818Z,1857.00
2023-04-12T11:02:17.760Z,1871.00
2023-04-12T11:03:17.882Z,1874.00
2023-04-12T11:04:18.914Z,1891.00
2023-04-12T11:05:18.820Z,1898.00
2023-04-12T11:06:27.135Z,1900.00
2023-04-12T11:07:18.666Z,1908.00
2023-04-12T11:08:18.702Z,1920.00
2023-04-12T11:09:18.641Z,1932.00
2023-04-12T11:10:18.774Z,1947.00
2023-04-12T11:11:17.677Z,1953.00
2023-04-12T11:12:18.624Z,1960.00
2023-04-12T11:13:17.613Z,1967.00
2023-04-12T11:14:18.632Z,1981.00
2023-04-12T11:15:17.631Z,2002.00
2023-04-12T11:16:17.655Z,2027.00
2023-04-12T11:17:18.706Z,2034.00
2023-04-12T11:18:18.652Z,2024.00
2023-04-12T11:19:18.580Z,2028.00
2023-04-12T11:20:18.563Z,2042.00
2023-04-12T11:21:18.585Z,2062.00
2023-04-12T11:22:18.565Z,2093.00
2023-04-12T11:23:18.617Z,2097.00
2023-04-12T11:24:18.542Z,2103.00
2023-04-12T11:25:17.531Z,2107.00
2023-04-12T11:26:18.603Z,2114.00
2023-04-12T11:27:18.540Z,2120.00
2023-04-12T11:28:27.916Z,2134.00
2023-04-12T11:29:18.512Z,2140.00
2023-04-12T11:30:18.511Z,2158.00
2023-04-12T11:31:18.526Z,2149.00
2023-04-12T11:32:17.556Z,2107.00
2023-04-12T11:33:17.472Z,2062.00
2023-04-12T11:34:18.567Z,1944.00
2023-04-12T11:35:18.462Z,1938.00
2023-04-12T11:36:18.465Z,1938.00
2023-04-12T11:37:17.451Z,1952.00
2023-04-12T11:38:18.443Z,1979.00
2023-04-12T11:39:18.431Z,1971.00
2023-04-12T11:40:18.446Z,1978.00
2023-04-12T11:41:18.506Z,1977.00
2023-04-12T11:42:17.445Z,1979.00
2023-04-12T11:43:18.447Z,1979.00
2023-04-12T11:44:17.566Z,1980.00
2023-04-12T11:45:18.438Z,1980.00
2023-04-12T11:46:18.756Z,1977.00
2023-04-12T11:47:18.671Z,1975.00
2023-04-12T11:48:18.837Z,1974.00
2023-04-12T11:49:18.770Z,1980.00
2023-04-12T11:50:18.861Z,1984.00
2023-04-12T11:51:17.901Z,1981.00
2023-04-12T11:52:18.973Z,1981.00
2023-04-12T11:53:19.025Z,1981.00
2023-04-12T11:54:19.094Z,1976.00
2023-04-12T11:55:18.120Z,1970.00
2023-04-12T11:56:18.188Z,1973.00
2023-04-12T11:57:18.247Z,1971.00
2023-04-12T11:58:19.320Z,1971.00
2023-04-12T11:59:18.310Z,1968.00
2023-04-12T12:00:19.305Z,1963.00
2023-04-12T12:01:18.319Z,1960.00
2023-04-12T12:02:23.282Z,1956.00
2023-04-12T12:03:20.976Z,1961.00
2023-04-12T12:04:19.441Z,1967.00
2023-04-12T12:05:18.498Z,1970.00
2023-04-12T12:06:18.456Z,1967.00
2023-04-12T12:07:19.526Z,1971.00
2023-04-12T12:08:18.266Z,1974.00
2023-04-12T12:09:19.264Z,1976.00
2023-04-12T12:10:37.728Z,1975.00
2023-04-12T12:11:19.263Z,1966.00
2023-04-12T12:12:18.249Z,1944.00
2023-04-12T12:13:19.244Z,1907.00
2023-04-12T12:14:19.299Z,1887.00
2023-04-12T12:15:19.225Z,1862.00
2023-04-12T12:16:19.211Z,1799.00
2023-04-12T12:17:18.202Z,1773.00
2023-04-12T12:18:18.202Z,1780.00
2023-04-12T12:19:18.183Z,1771.00
2023-04-12T12:20:19.223Z,1757.00
2023-04-12T12:21:18.179Z,1753.00
2023-04-12T12:22:19.207Z,1747.00
2023-04-12T12:23:19.175Z,1742.00
2023-04-12T12:24:18.205Z,1741.00
2023-04-12T12:25:19.158Z,1742.00
2023-04-12T12:26:19.589Z,1746.00
2023-04-12T12:27:18.126Z,1743.00
2023-04-12T12:28:18.252Z,1741.00
2023-04-12T12:29:18.111Z,1731.00
2023-04-12T12:30:18.129Z,1720.00
2023-04-12T12:31:18.137Z,1716.00
2023-04-12T12:32:19.124Z,1715.00
2023-04-12T12:33:18.083Z,1715.00
2023-04-12T12:34:19.073Z,1713.00
2023-04-12T12:35:19.066Z,1708.00
2023-04-12T12:36:18.046Z,1709.00
2023-04-12T12:37:19.050Z,1711.00
2023-04-12T12:38:19.074Z,1711.00
2023-04-12T12:39:19.028Z,1709.00
2023-04-12T12:40:18.029Z,1706.00
2023-04-12T12:41:18.009Z,1698.00
2023-04-12T12:42:18.005Z,1700.00
2023-04-12T12:43:18.989Z,1698.00
2023-04-12T12:44:18.988Z,1696.00
2023-04-12T12:45:18.969Z,1691.00
2023-04-12T12:46:19.200Z,1687.00
2023-04-12T12:47:19.053Z,1689.00
2023-04-12T12:48:19.148Z,1686.00
2023-04-12T12:49:18.172Z,1686.00
2023-04-12T12:50:19.211Z,1686.00
2023-04-12T12:51:19.772Z,1683.00
2023-04-12T12:52:18.358Z,1677.00
2023-04-12T12:53:18.393Z,1681.00
2023-04-12T12:54:32.108Z,1685.00
2023-04-12T12:55:19.444Z,1688.00
2023-04-12T12:56:18.435Z,1691.00
2023-04-12T12:57:19.440Z,1693.00
2023-04-12T12:58:18.438Z,1691.00
2023-04-12T12:59:18.410Z,1689.00
2023-04-12T13:00:18.427Z,1686.00
2023-04-12T13:01:18.409Z,1686.00
2023-04-12T13:02:19.527Z,1684.00
2023-04-12T13:03:19.700Z,1684.00
2023-04-12T13:04:18.492Z,1683.00
2023-04-12T13:05:19.445Z,1687.00
2023-04-12T13:06:18.371Z,1690.00
2023-04-12T13:07:18.382Z,1691.00
2023-04-12T13:08:18.366Z,1688.00
2023-04-12T13:09:19.373Z,1692.00
2023-04-12T13:10:19.339Z,1693.00
2023-04-12T13:11:19.344Z,1690.00
2023-04-12T13:12:19.343Z,1689.00
2023-04-12T13:13:19.337Z,1691.00
2023-04-12T13:14:18.326Z,1694.00
2023-04-12T13:15:22.945Z,1693.00
2023-04-12T13:16:19.344Z,1694.00
2023-04-12T13:17:19.307Z,1693.00
2023-04-12T13:18:18.334Z,1696.00
2023-04-12T13:19:18.289Z,1697.00
2023-04-12T13:20:19.285Z,1697.00
2023-04-12T13:21:19.273Z,1697.00
2023-04-12T13:22:18.259Z,1701.00
2023-04-12T13:23:19.270Z,1702.00
2023-04-12T13:24:19.252Z,1702.00
2023-04-12T13:25:19.260Z,1701.00
2023-04-12T13:26:19.253Z,1701.00
2023-04-12T13:27:19.249Z,1705.00
2023-04-12T13:28:18.224Z,1706.00
2023-04-12T13:29:18.230Z,1703.00
2023-04-12T13:30:18.213Z,1705.00
2023-04-12T13:31:18.292Z,1708.00
2023-04-12T13:32:19.198Z,1707.00
2023-04-12T13:33:21.869Z,1708.00
2023-04-12T13:34:19.208Z,1714.00
2023-04-12T13:35:18.188Z,1715.00
2023-04-12T13:36:18.165Z,1720.00
2023-04-12T13:37:19.171Z,1722.00
2023-04-12T13:38:19.188Z,1722.00
2023-04-12T13:39:19.155Z,1716.00
2023-04-12T13:40:19.155Z,1714.00
2023-04-12T13:41:19.172Z,1713.00
2023-04-12T13:42:18.133Z,1713.00
2023-04-12T13:43:18.124Z,1712.00
2023-04-12T13:44:18.125Z,1714.00
2023-04-12T13:45:19.118Z,1716.00
2023-04-12T13:46:19.167Z,1715.00
2023-04-12T13:47:19.105Z,1714.00
2023-04-12T13:48:18.095Z,1719.00
2023-04-12T13:49:19.089Z,1718.00
2023-04-12T13:50:18.095Z,1721.00
2023-04-12T13:51:18.080Z,1724.00
2023-04-12T13:52:18.068Z,1725.00
2023-04-12T13:53:19.056Z,1724.00
2023-04-12T13:54:19.065Z,1728.00
2023-04-12T13:55:19.615Z,1729.00
2023-04-12T13:56:18.047Z,1730.00
2023-04-12T13:57:18.035Z,1730.00
2023-04-12T13:58:19.060Z,1732.00
2023-04-12T13:59:18.021Z,1733.00
2023-04-12T14:00:19.064Z,1734.00
2023-04-12T14:01:19.044Z,1734.00
2023-04-12T14:02:19.068Z,1734.00
2023-04-12T14:03:18.037Z,1735.00
2023-04-12T14:04:18.021Z,1733.00
2023-04-12T14:05:18.975Z,1728.00
2023-04-12T14:06:19.010Z,1725.00
2023-04-12T14:07:17.955Z,1722.00
2023-04-12T14:08:17.981Z,1719.00
2023-04-12T14:09:18.949Z,1715.00
2023-04-12T14:10:18.947Z,1695.00
2023-04-12T14:11:18.949Z,1691.00
2023-04-12T14:12:17.920Z,1688.00
2023-04-12T14:13:18.948Z,1685.00
2023-04-12T14:14:18.926Z,1684.00
2023-04-12T14:15:18.973Z,1684.00
2023-04-12T14:16:18.905Z,1677.00
2023-04-12T14:17:18.959Z,1674.00
2023-04-12T14:18:18.913Z,1664.00
2023-04-12T14:19:17.871Z,1659.00
2023-04-12T14:20:19.553Z,1659.00
2023-04-12T14:21:18.877Z,1654.00
2023-04-12T14:22:18.884Z,1642.00
2023-04-12T14:23:18.851Z,1642.00
2023-04-12T14:24:17.847Z,1635.00
2023-04-12T14:25:18.829Z,1630.00
2023-04-12T14:26:18.820Z,1628.00
2023-04-12T14:27:18.826Z,1624.00
2023-04-12T14:28:17.808Z,1621.00
2023-04-12T14:29:17.808Z,1618.00
2023-04-12T14:30:19.113Z,1605.00
2023-04-12T14:31:17.847Z,1598.00
2023-04-12T14:32:18.781Z,1590.00
2023-04-12T14:33:17.871Z,1581.00
2023-04-12T14:34:17.765Z,1579.00
2023-04-12T14:35:17.761Z,1580.00
2023-04-12T14:36:17.762Z,1574.00
2023-04-12T14:37:18.745Z,1573.00
2023-04-12T14:38:17.767Z,1575.00
2023-04-12T14:39:17.747Z,1575.00
2023-04-12T14:40:17.715Z,1568.00
2023-04-12T14:41:18.708Z,1563.00
2023-04-12T14:42:17.705Z,1543.00
2023-04-12T14:43:18.727Z,1538.00
2023-04-12T14:44:20.412Z,1530.00
2023-04-12T14:45:18.730Z,1516.00
2023-04-12T14:46:17.766Z,1506.00
2023-04-12T14:47:17.710Z,1478.00
2023-04-12T14:48:18.693Z,1467.00
2023-04-12T14:49:18.678Z,1451.00
2023-04-12T14:50:18.686Z,1445.00
2023-04-12T14:51:18.680Z,1449.00
2023-04-12T14:52:18.684Z,1457.00
2023-04-12T14:53:18.661Z,1467.00
2023-04-12T14:54:18.679Z,1471.00
2023-04-12T14:55:17.645Z,1466.00
2023-04-12T14:56:17.630Z,1465.00
2023-04-12T14:57:18.633Z,1464.00
2023-04-12T14:58:18.622Z,1460.00
2023-04-12T14:59:17.646Z,1454.00
2023-04-12T15:00:18.614Z,1454.00
2023-04-12T15:01:17.619Z,1458.00
2023-04-12T15:02:18.737Z,1457.00
2023-04-12T15:03:17.816Z,1457.00
2023-04-12T15:04:18.746Z,1452.00
2023-04-12T15:05:18.643Z,1450.00
2023-04-12T15:06:17.566Z,1452.00
2023-04-12T15:07:17.549Z,1453.00
2023-04-12T15:08:18.552Z,1453.00
2023-04-12T15:09:17.792Z,1453.00
2023-04-12T15:10:17.568Z,1456.00
2023-04-12T15:11:18.535Z,1456.00
2023-04-12T15:12:18.535Z,1457.00
2023-04-12T15:13:19.162Z,1457.00
2023-04-12T15:14:18.517Z,1457.00
2023-04-12T15:15:18.526Z,1454.00
2023-04-12T15:16:18.540Z,1455.00
2023-04-12T15:17:17.537Z,1455.00
2023-04-12T15:18:18.561Z,1455.00
2023-04-12T15:19:21.954Z,1455.00
2023-04-12T15:20:18.574Z,1458.00
2023-04-12T15:21:17.587Z,1456.00
2023-04-12T15:22:18.597Z,1462.00
2023-04-12T15:23:17.613Z,1464.00
2023-04-12T15:24:18.623Z,1462.00
2023-04-12T15:25:18.631Z,1461.00
2023-04-12T15:26:17.671Z,1461.00
2023-04-12T15:27:17.673Z,1460.00
2023-04-12T15:28:18.672Z,1461.00
2023-04-12T15:29:18.689Z,1461.00
